createdAt,value
2022-09-02T00:01:31.395Z,14.86
2022-09-02T00:04:05.443Z,14.86
2022-09-02T00:06:33.283Z,14.87
2022-09-02T00:09:01.056Z,14.86
2022-09-02T00:11:30.856Z,14.85
2022-09-02T00:13:58.567Z,14.88
2022-09-02T00:16:26.086Z,14.85
2022-09-02T00:18:53.755Z,14.85
2022-09-02T00:21:21.665Z,14.90
2022-09-02T00:23:48.672Z,14.87
2022-09-02T00:26:15.397Z,14.86
2022-09-02T00:28:51.176Z,14.83
2022-09-02T00:31:24.974Z,14.82
2022-09-02T00:33:51.996Z,14.77
2022-09-02T00:36:19.191Z,14.77
2022-09-02T00:38:46.019Z,14.76
2022-09-02T00:41:13.683Z,14.72
2022-09-02T00:43:56.487Z,14.73
2022-09-02T00:46:26.109Z,14.70
2022-09-02T00:49:08.538Z,14.68
2022-09-02T00:51:44.740Z,14.58
2022-09-02T00:54:13.860Z,14.61
2022-09-02T00:56:43.776Z,14.60
2022-09-02T00:59:15.882Z,14.56
2022-09-02T01:01:42.614Z,14.54
2022-09-02T01:04:12.431Z,14.51
2022-09-02T01:06:39.908Z,14.55
2022-09-02T01:09:12.044Z,14.55
2022-09-02T01:11:47.971Z,14.55
2022-09-02T01:14:16.613Z,14.54
2022-09-02T01:16:50.439Z,14.51
2022-09-02T01:19:33.743Z,14.51
2022-09-02T01:22:01.164Z,14.46
2022-09-02T01:24:31.750Z,14.40
2022-09-02T01:26:59.289Z,14.43
2022-09-02T01:29:27.832Z,14.43
2022-09-02T01:31:54.893Z,14.43
2022-09-02T01:34:21.548Z,14.39
2022-09-02T01:36:48.189Z,14.38
2022-09-02T01:39:15.555Z,14.35
2022-09-02T01:41:43.187Z,14.35
2022-09-02T01:44:10.526Z,14.33
2022-09-02T01:46:37.296Z,14.30
2022-09-02T01:49:04.703Z,14.20
2022-09-02T01:51:31.438Z,14.24
2022-09-02T01:53:59.040Z,14.24
2022-09-02T01:56:25.720Z,14.24
2022-09-02T01:58:52.798Z,14.21
2022-09-02T02:01:20.134Z,14.24
2022-09-02T02:03:47.786Z,14.20
2022-09-02T02:06:17.596Z,14.15
2022-09-02T02:08:45.282Z,14.16
2022-09-02T02:11:18.838Z,14.18
2022-09-02T02:13:49.780Z,14.17
2022-09-02T02:16:16.914Z,14.17
2022-09-02T02:18:43.602Z,14.17
2022-09-02T02:21:11.256Z,14.16
2022-09-02T02:23:37.951Z,14.11
2022-09-02T02:26:06.526Z,14.11
2022-09-02T02:28:33.342Z,14.09
2022-09-02T02:31:02.732Z,14.06
2022-09-02T02:33:30.530Z,14.04
2022-09-02T02:36:06.085Z,14.05
2022-09-02T02:38:37.680Z,14.05
2022-09-02T02:41:06.348Z,14.03
2022-09-02T02:43:34.421Z,14.02
2022-09-02T02:46:01.196Z,13.99
2022-09-02T02:48:27.878Z,13.98
2022-09-02T02:50:54.975Z,13.95
2022-09-02T02:53:21.735Z,13.91
2022-09-02T02:55:49.844Z,13.93
2022-09-02T02:58:17.444Z,13.93
2022-09-02T03:00:45.556Z,13.95
2022-09-02T03:03:14.906Z,13.93
2022-09-02T03:05:41.548Z,13.92
2022-09-02T03:08:10.452Z,13.92
2022-09-02T03:10:41.184Z,13.89
2022-09-02T03:13:10.480Z,13.86
2022-09-02T03:15:39.488Z,13.88
2022-09-02T03:18:06.365Z,13.87
2022-09-02T03:20:33.180Z,13.86
2022-09-02T03:23:04.686Z,13.83
2022-09-02T03:25:35.916Z,13.83
2022-09-02T03:28:10.164Z,13.82
2022-09-02T03:30:39.696Z,13.79
2022-09-02T03:33:07.083Z,13.74
2022-09-02T03:35:39.573Z,13.76
2022-09-02T03:38:07.800Z,13.76
2022-09-02T03:40:34.927Z,13.79
2022-09-02T03:43:02.264Z,13.76
2022-09-02T03:45:30.982Z,13.79
2022-09-02T03:48:02.301Z,13.74
2022-09-02T03:50:37.771Z,13.73
2022-09-02T03:53:05.640Z,13.71
2022-09-02T03:55:33.343Z,13.69
2022-09-02T03:58:03.402Z,13.66
2022-09-02T04:00:33.598Z,13.64
2022-09-02T04:03:03.872Z,13.62
2022-09-02T04:05:31.819Z,13.60
2022-09-02T04:08:00.659Z,13.54
2022-09-02T04:10:28.497Z,13.52
2022-09-02T04:12:55.551Z,13.53
2022-09-02T04:15:22.703Z,13.52
2022-09-02T04:17:50.909Z,13.51
2022-09-02T04:20:20.114Z,13.48
2022-09-02T04:22:46.752Z,13.45
2022-09-02T04:25:13.571Z,13.45
2022-09-02T04:27:40.790Z,13.46
2022-09-02T04:30:09.175Z,13.47
2022-09-02T04:32:40.906Z,13.48
2022-09-02T04:35:09.187Z,13.45
2022-09-02T04:37:36.952Z,13.43
2022-09-02T04:40:04.492Z,13.44
2022-09-02T04:42:31.197Z,13.44
2022-09-02T04:44:57.992Z,13.43
2022-09-02T04:47:26.697Z,13.42
2022-09-02T04:49:54.242Z,13.41
2022-09-02T04:52:21.530Z,13.40
2022-09-02T04:54:48.932Z,13.40
2022-09-02T04:57:16.608Z,13.38
2022-09-02T04:59:44.069Z,13.35
2022-09-02T05:02:12.133Z,13.37
2022-09-02T05:04:39.889Z,13.40
2022-09-02T05:07:13.181Z,13.38
2022-09-02T05:09:44.436Z,13.44
2022-09-02T05:12:11.532Z,13.39
2022-09-02T05:14:43.895Z,13.40
2022-09-02T05:17:10.922Z,13.44
2022-09-02T05:19:41.430Z,13.48
2022-09-02T05:22:08.420Z,13.48
2022-09-02T05:24:38.580Z,13.47
2022-09-02T05:27:09.835Z,13.48
2022-09-02T05:29:36.979Z,13.48
2022-09-02T05:32:04.972Z,13.54
2022-09-02T05:34:33.467Z,13.60
2022-09-02T05:37:03.379Z,13.66
2022-09-02T05:39:32.630Z,13.68
2022-09-02T05:42:00.665Z,13.69
2022-09-02T05:44:29.211Z,13.70
2022-09-02T05:46:57.153Z,13.72
2022-09-02T05:49:23.852Z,13.73
2022-09-02T05:51:58.654Z,13.75
2022-09-02T05:54:36.845Z,13.82
2022-09-02T05:57:11.574Z,13.88
2022-09-02T05:59:44.135Z,13.90
2022-09-02T06:02:19.151Z,13.93
2022-09-02T06:04:47.000Z,13.94
2022-09-02T06:07:16.145Z,13.96
2022-09-02T06:09:45.747Z,13.99
2022-09-02T06:12:14.842Z,14.02
2022-09-02T06:14:42.877Z,14.08
2022-09-02T06:17:10.813Z,14.13
2022-09-02T06:19:47.319Z,14.15
2022-09-02T06:22:14.630Z,14.13
2022-09-02T06:24:42.799Z,14.19
2022-09-02T06:27:15.735Z,14.27
2022-09-02T06:29:46.044Z,14.29
2022-09-02T06:32:15.774Z,14.34
2022-09-02T06:34:42.381Z,14.37
2022-09-02T06:37:09.015Z,14.41
2022-09-02T06:39:43.817Z,14.45
2022-09-02T06:42:16.016Z,14.43
2022-09-02T06:44:58.802Z,14.48
2022-09-02T06:47:25.439Z,14.53
2022-09-02T06:49:52.069Z,14.57
2022-09-02T06:52:20.927Z,14.61
2022-09-02T06:54:50.007Z,14.64
2022-09-02T06:57:17.295Z,14.65
2022-09-02T06:59:44.255Z,14.69
2022-09-02T07:02:12.577Z,14.72
2022-09-02T07:05:00.113Z,14.74
2022-09-02T07:07:26.785Z,14.76
2022-09-02T07:10:00.604Z,14.84
2022-09-02T07:12:27.896Z,14.90
2022-09-02T07:15:08.698Z,14.98
2022-09-02T07:17:38.880Z,15.06
2022-09-02T07:20:10.438Z,15.08
2022-09-02T07:22:48.885Z,15.10
2022-09-02T07:25:18.855Z,15.14
2022-09-02T07:27:47.851Z,15.28
2022-09-02T07:30:14.600Z,15.38
2022-09-02T07:32:44.347Z,15.47
2022-09-02T07:35:11.063Z,15.49
2022-09-02T07:37:38.578Z,15.55
2022-09-02T07:40:11.519Z,15.66
2022-09-02T07:42:38.681Z,15.81
2022-09-02T07:45:06.761Z,15.92
2022-09-02T07:47:34.686Z,15.94
2022-09-02T07:50:21.503Z,15.93
2022-09-02T07:52:58.162Z,16.01
2022-09-02T07:55:27.041Z,16.03
2022-09-02T07:57:55.526Z,16.07
2022-09-02T08:00:27.413Z,16.12
2022-09-02T08:02:57.184Z,16.16
2022-09-02T08:05:29.489Z,16.29
2022-09-02T08:07:56.064Z,16.45
2022-09-02T08:10:25.893Z,16.51
2022-09-02T08:12:52.983Z,16.50
2022-09-02T08:15:22.525Z,16.51
2022-09-02T08:17:49.618Z,16.66
2022-09-02T08:20:17.520Z,16.83
2022-09-02T08:22:47.947Z,16.92
2022-09-02T08:25:21.176Z,16.95
2022-09-02T08:27:47.847Z,17.00
2022-09-02T08:30:14.528Z,17.05
2022-09-02T08:32:41.902Z,17.18
2022-09-02T08:35:10.342Z,17.27
2022-09-02T08:37:37.486Z,17.39
2022-09-02T08:40:07.567Z,17.48
2022-09-02T08:42:41.847Z,17.58
2022-09-02T08:45:20.049Z,17.68
2022-09-02T08:47:53.006Z,17.77
2022-09-02T08:50:20.576Z,17.82
2022-09-02T08:53:02.507Z,17.86
2022-09-02T08:55:39.995Z,17.84
2022-09-02T09:00:42.443Z,17.88
2022-09-02T09:03:33.650Z,17.99
2022-09-02T09:06:16.299Z,18.08
2022-09-02T09:08:57.470Z,18.20
2022-09-02T09:11:34.834Z,18.27
2022-09-02T09:14:06.444Z,18.37
2022-09-02T09:16:44.372Z,18.45
2022-09-02T09:19:22.510Z,18.48
2022-09-02T09:21:49.144Z,18.53
2022-09-02T09:24:49.819Z,18.66
2022-09-02T09:27:19.825Z,18.76
2022-09-02T09:29:50.195Z,18.78
2022-09-02T09:32:22.683Z,18.84
2022-09-02T09:34:52.367Z,18.99
2022-09-02T09:37:42.302Z,19.12
2022-09-02T09:40:17.893Z,19.11
2022-09-02T09:42:49.698Z,19.18
2022-09-02T09:45:24.089Z,19.24
2022-09-02T09:48:29.982Z,19.39
2022-09-02T09:50:56.500Z,19.60
2022-09-02T09:53:25.582Z,19.73
2022-09-02T09:55:55.253Z,19.87
2022-09-02T09:58:23.457Z,20.07
2022-09-02T10:00:56.391Z,20.07
2022-09-02T10:03:33.080Z,20.08
2022-09-02T10:06:17.988Z,20.17
2022-09-02T10:08:56.842Z,20.27
2022-09-02T10:11:26.396Z,20.33
2022-09-02T10:13:59.731Z,20.31
2022-09-02T10:16:50.055Z,20.46
2022-09-02T10:19:31.298Z,20.52
2022-09-02T10:21:58.130Z,20.58
2022-09-02T10:24:56.026Z,20.66
2022-09-02T10:27:37.424Z,20.74
2022-09-02T10:30:41.199Z,20.75
2022-09-02T10:33:25.318Z,20.85
2022-09-02T10:35:57.912Z,20.94
2022-09-02T10:38:46.687Z,21.09
2022-09-02T10:41:27.246Z,21.15
2022-09-02T10:43:59.876Z,21.28
2022-09-02T10:46:34.438Z,21.43
2022-09-02T10:49:16.479Z,21.47
2022-09-02T10:51:52.179Z,21.58
2022-09-02T10:55:17.582Z,21.74
2022-09-02T10:57:52.881Z,21.82
2022-09-02T11:00:21.427Z,21.84
2022-09-02T11:02:54.503Z,21.87
2022-09-02T11:05:59.879Z,22.12
2022-09-02T11:08:49.343Z,22.18
2022-09-02T11:11:21.931Z,22.36
2022-09-02T11:14:15.617Z,22.38
2022-09-02T11:17:18.789Z,22.40
2022-09-02T11:20:04.239Z,22.43
2022-09-02T11:22:48.961Z,22.57
2022-09-02T11:25:15.596Z,22.77
2022-09-02T11:27:52.818Z,22.97
2022-09-02T11:30:22.321Z,22.99
2022-09-02T11:33:34.649Z,23.08
2022-09-02T11:36:01.605Z,23.08
2022-09-02T11:38:43.750Z,23.29
2022-09-02T11:41:43.467Z,23.35
2022-09-02T11:44:31.548Z,23.55
2022-09-02T11:47:31.999Z,23.69
2022-09-02T11:50:23.119Z,23.81
2022-09-02T11:53:17.128Z,23.95
2022-09-02T11:55:56.242Z,24.06
2022-09-02T11:58:38.377Z,23.96
2022-09-02T12:01:15.070Z,24.06
2022-09-02T12:04:27.532Z,24.25
2022-09-02T12:07:07.873Z,24.40
2022-09-02T12:09:52.982Z,24.48
2022-09-02T12:12:42.930Z,24.70
2022-09-02T12:15:17.638Z,24.75
2022-09-02T12:17:50.941Z,24.80
2022-09-02T12:20:36.480Z,25.03
2022-09-02T12:23:03.629Z,25.11
2022-09-02T12:25:34.016Z,25.07
2022-09-02T12:28:19.187Z,25.01
2022-09-02T12:30:56.512Z,25.09
2022-09-02T12:33:34.983Z,25.17
2022-09-02T12:36:04.822Z,25.19
2022-09-02T12:38:34.078Z,25.41
2022-09-02T12:41:07.718Z,25.62
2022-09-02T12:43:41.657Z,25.71
2022-09-02T12:46:23.016Z,25.67
2022-09-02T12:49:05.758Z,25.66
2022-09-02T12:51:57.522Z,25.56
2022-09-02T12:54:41.543Z,25.66
2022-09-02T12:57:10.258Z,25.71
2022-09-02T12:59:41.412Z,25.72
2022-09-02T13:02:26.868Z,25.72
2022-09-02T13:04:56.255Z,25.77
2022-09-02T13:07:44.522Z,25.86
2022-09-02T13:10:14.534Z,25.94
2022-09-02T13:13:18.266Z,25.97
2022-09-02T13:16:16.944Z,26.22
2022-09-02T13:19:11.005Z,26.31
2022-09-02T13:22:04.569Z,26.45
2022-09-02T13:25:01.246Z,26.48
2022-09-02T13:27:46.541Z,26.58
2022-09-02T13:30:26.265Z,26.46
2022-09-02T13:33:00.225Z,26.53
2022-09-02T13:35:28.823Z,26.51
2022-09-02T13:37:59.794Z,26.65
2022-09-02T13:40:37.229Z,26.62
2022-09-02T13:43:12.804Z,26.67
2022-09-02T13:45:40.136Z,26.82
2022-09-02T13:48:19.273Z,27.00
2022-09-02T13:50:48.893Z,27.01
2022-09-02T13:53:45.841Z,27.05
2022-09-02T13:56:17.693Z,26.99
2022-09-02T13:58:51.990Z,26.99
2022-09-02T14:01:24.964Z,26.99
2022-09-02T14:03:54.766Z,26.97
2022-09-02T14:06:25.263Z,26.90
2022-09-02T14:08:55.758Z,27.01
2022-09-02T14:11:23.022Z,27.00
2022-09-02T14:13:51.035Z,26.92
2022-09-02T14:16:24.423Z,26.89
2022-09-02T14:19:14.447Z,26.87
2022-09-02T14:21:48.212Z,26.91
2022-09-02T14:24:19.952Z,27.02
2022-09-02T14:26:49.899Z,27.06
2022-09-02T14:29:18.975Z,26.99
2022-09-02T14:31:46.544Z,26.98
2022-09-02T14:34:32.286Z,26.91
2022-09-02T14:36:58.946Z,26.87
2022-09-02T14:39:25.678Z,26.82
2022-09-02T14:41:54.830Z,26.79
2022-09-02T14:44:34.649Z,26.87
2022-09-02T14:47:07.482Z,27.06
2022-09-02T14:49:41.974Z,27.07
2022-09-02T14:52:23.382Z,26.92
2022-09-02T14:54:53.091Z,26.97
2022-09-02T14:57:28.707Z,26.93
2022-09-02T15:00:02.306Z,27.03
2022-09-02T15:02:32.677Z,27.09
2022-09-02T15:05:01.388Z,27.26
2022-09-02T15:07:28.747Z,27.27
2022-09-02T15:09:55.434Z,27.26
2022-09-02T15:12:34.063Z,27.12
2022-09-02T15:15:01.047Z,26.95
2022-09-02T15:17:29.514Z,26.85
2022-09-02T15:19:56.600Z,27.00
2022-09-02T15:22:23.912Z,27.00
2022-09-02T15:24:51.833Z,26.95
2022-09-02T15:27:21.494Z,26.92
2022-09-02T15:29:49.029Z,26.88
2022-09-02T15:32:16.212Z,26.89
2022-09-02T15:34:42.791Z,26.91
2022-09-02T15:37:12.799Z,27.00
2022-09-02T15:39:40.783Z,27.13
2022-09-02T15:42:07.502Z,27.23
2022-09-02T15:44:34.158Z,27.27
2022-09-02T15:47:00.768Z,27.26
2022-09-02T15:49:27.559Z,27.18
2022-09-02T15:51:55.223Z,26.97
2022-09-02T15:54:23.888Z,26.82
2022-09-02T15:56:55.500Z,26.70
2022-09-02T15:59:22.478Z,26.61
2022-09-02T16:01:51.865Z,26.57
2022-09-02T16:04:18.570Z,26.51
2022-09-02T16:06:52.316Z,26.50
2022-09-02T16:09:19.847Z,26.41
2022-09-02T16:11:52.600Z,26.28
2022-09-02T16:14:21.393Z,26.09
2022-09-02T16:16:49.888Z,25.84
2022-09-02T16:19:21.317Z,25.42
2022-09-02T16:21:49.295Z,25.11
2022-09-02T16:24:15.942Z,24.90
2022-09-02T16:26:42.621Z,24.78
2022-09-02T16:29:16.001Z,24.84
2022-09-02T16:31:45.890Z,24.87
2022-09-02T16:34:24.072Z,24.87
2022-09-02T16:36:51.780Z,24.77
2022-09-02T16:39:19.838Z,24.37
2022-09-02T16:41:52.186Z,24.04
2022-09-02T16:44:24.063Z,23.74
2022-09-02T16:46:52.502Z,23.45
2022-09-02T16:49:21.908Z,23.19
2022-09-02T16:51:50.848Z,23.05
2022-09-02T16:54:30.876Z,22.92
2022-09-02T16:56:59.595Z,22.77
2022-09-02T16:59:26.202Z,22.68
2022-09-02T17:01:52.925Z,22.62
2022-09-02T17:04:19.584Z,22.58
2022-09-02T17:06:46.187Z,22.58
2022-09-02T17:09:12.802Z,22.52
2022-09-02T17:11:41.321Z,22.45
2022-09-02T17:14:18.048Z,22.30
2022-09-02T17:16:47.151Z,22.05
2022-09-02T17:19:20.837Z,21.87
2022-09-02T17:21:56.904Z,21.77
2022-09-02T17:24:27.691Z,21.68
2022-09-02T17:26:56.264Z,21.61
2022-09-02T17:29:48.980Z,21.50
2022-09-02T17:32:15.865Z,21.49
2022-09-02T17:34:42.448Z,21.42
2022-09-02T17:37:09.129Z,21.33
2022-09-02T17:39:35.759Z,21.23
2022-09-02T17:42:05.263Z,21.17
2022-09-02T17:44:35.920Z,21.06
2022-09-02T17:47:07.563Z,20.97
2022-09-02T17:49:37.760Z,20.84
2022-09-02T17:52:07.417Z,20.70
2022-09-02T17:54:38.623Z,20.59
2022-09-02T17:57:17.385Z,20.48
2022-09-02T17:59:51.940Z,20.34
2022-09-02T18:02:43.356Z,20.27
2022-09-02T18:05:21.381Z,20.21
2022-09-02T18:08:39.256Z,20.13
2022-09-02T18:11:07.796Z,20.00
2022-09-02T18:13:34.385Z,19.99
2022-09-02T18:16:28.753Z,19.94
2022-09-02T18:19:06.618Z,19.87
2022-09-02T18:21:59.860Z,19.79
2022-09-02T18:25:04.196Z,19.65
2022-09-02T18:27:40.770Z,19.55
2022-09-02T18:30:10.336Z,19.44
2022-09-02T18:32:59.393Z,19.40
2022-09-02T18:35:44.110Z,19.33
2022-09-02T18:38:19.486Z,19.27
2022-09-02T18:40:57.011Z,19.26
2022-09-02T18:43:55.399Z,19.16
2022-09-02T18:46:24.986Z,19.08
2022-09-02T18:49:03.472Z,19.00
2022-09-02T18:51:39.005Z,18.97
2022-09-02T18:54:23.039Z,18.97
2022-09-02T18:56:58.841Z,18.89
2022-09-02T18:59:42.071Z,18.86
2022-09-02T19:02:23.936Z,18.82
2022-09-02T19:04:50.651Z,18.74
2022-09-02T19:07:38.499Z,18.71
2022-09-02T19:10:06.386Z,18.66
2022-09-02T19:12:34.991Z,18.63
2022-09-02T19:15:06.214Z,18.61
2022-09-02T19:17:32.710Z,18.61
2022-09-02T19:19:59.259Z,18.58
2022-09-02T19:22:28.346Z,18.57
2022-09-02T19:25:02.849Z,18.56
2022-09-02T19:27:33.755Z,18.50
2022-09-02T19:30:08.479Z,18.48
2022-09-02T19:32:37.902Z,18.45
2022-09-02T19:35:16.297Z,18.48
2022-09-02T19:37:45.070Z,18.46
2022-09-02T19:40:12.325Z,18.43
2022-09-02T19:42:39.028Z,18.43
2022-09-02T19:45:06.120Z,18.38
2022-09-02T19:50:21.070Z,18.23
2022-09-02T19:52:49.403Z,18.29
2022-09-02T19:55:18.344Z,18.25
2022-09-02T19:57:45.787Z,18.21
2022-09-02T20:00:14.065Z,18.19
2022-09-02T20:02:40.983Z,18.13
2022-09-02T20:05:12.960Z,18.10
2022-09-02T20:07:40.615Z,18.06
2022-09-02T20:10:08.844Z,18.03
2022-09-02T20:12:36.475Z,17.98
2022-09-02T20:15:04.877Z,17.93
2022-09-02T20:17:31.686Z,17.93
2022-09-02T20:20:01.294Z,17.89
2022-09-02T20:22:31.734Z,17.88
2022-09-02T20:24:58.428Z,17.85
2022-09-02T20:27:54.813Z,17.79
2022-09-02T20:30:21.719Z,17.79
2022-09-02T20:32:57.381Z,17.76
2022-09-02T20:35:34.014Z,17.71
2022-09-02T20:38:20.548Z,17.64
2022-09-02T20:41:20.103Z,17.60
2022-09-02T20:44:11.451Z,17.57
2022-09-02T20:46:41.035Z,17.52
2022-09-02T20:49:41.884Z,17.51
2022-09-02T20:52:19.515Z,17.47
2022-09-02T20:54:48.137Z,17.44
2022-09-02T20:57:36.932Z,17.39
2022-09-02T21:00:08.880Z,17.35
2022-09-02T21:02:57.840Z,17.33
2022-09-02T21:05:32.923Z,17.33
2022-09-02T21:08:12.880Z,17.32
2022-09-02T21:10:45.904Z,17.27
2022-09-02T21:13:27.536Z,17.27
2022-09-02T21:15:57.327Z,17.23
2022-09-02T21:18:44.529Z,17.22
2022-09-02T21:21:43.086Z,17.21
2022-09-02T21:24:19.020Z,17.20
2022-09-02T21:27:25.399Z,17.14
2022-09-02T21:30:04.588Z,17.07
2022-09-02T21:32:45.334Z,17.02
2022-09-02T21:35:42.528Z,16.95
2022-09-02T21:38:22.287Z,16.89
2022-09-02T21:41:27.176Z,16.82
2022-09-02T21:44:11.392Z,16.77
2022-09-02T21:47:01.591Z,16.70
2022-09-02T21:49:39.441Z,16.66
2022-09-02T21:52:15.061Z,16.65
2022-09-02T21:55:01.259Z,16.64
2022-09-02T21:57:37.571Z,16.62
2022-09-02T22:00:12.990Z,16.61
2022-09-02T22:03:10.390Z,16.61
2022-09-02T22:06:13.636Z,16.64
2022-09-02T22:08:48.390Z,16.66
2022-09-02T22:11:41.610Z,16.68
2022-09-02T22:14:14.851Z,16.71
2022-09-02T22:16:47.136Z,16.74
2022-09-02T22:19:14.594Z,16.78
2022-09-02T22:21:48.535Z,16.84
2022-09-02T22:24:20.303Z,16.87
2022-09-02T22:26:54.421Z,16.88
2022-09-02T22:29:45.727Z,16.86
2022-09-02T22:32:31.796Z,16.89
2022-09-02T22:35:22.882Z,16.88
2022-09-02T22:37:58.378Z,16.87
2022-09-02T22:40:32.381Z,16.79
2022-09-02T22:43:06.944Z,16.75
2022-09-02T22:46:01.615Z,16.78
2022-09-02T22:48:57.644Z,16.80
2022-09-02T22:51:50.035Z,16.79
2022-09-02T22:54:17.474Z,16.77
2022-09-02T22:56:52.885Z,16.77
2022-09-02T22:59:50.192Z,16.73
2022-09-02T23:02:18.054Z,16.70
2022-09-02T23:05:37.689Z,16.69
2022-09-02T23:08:08.933Z,16.67
2022-09-02T23:10:54.329Z,16.63
2022-09-02T23:13:42.822Z,16.57
2022-09-02T23:16:19.975Z,16.52
2022-09-02T23:19:11.923Z,16.50
2022-09-02T23:21:54.405Z,16.47
2022-09-02T23:24:53.181Z,16.46
2022-09-02T23:27:45.062Z,16.41
2022-09-02T23:30:14.748Z,16.38
2022-09-02T23:33:02.650Z,16.37
2022-09-02T23:35:48.167Z,16.33
2022-09-02T23:38:22.775Z,16.28
2022-09-02T23:41:18.457Z,16.25
2022-09-02T23:43:45.747Z,16.27
2022-09-02T23:46:47.335Z,16.32
2022-09-02T23:49:36.204Z,16.30
2022-09-02T23:52:24.009Z,16.25
2022-09-02T23:55:11.929Z,16.16
2022-09-02T23:57:42.633Z,16.12
